createdAt,value
2019-05-05T00:01:28.000Z,4.3
2019-05-05T00:05:02.000Z,5.4
2019-05-05T00:08:44.000Z,6.2
2019-05-05T00:12:23.000Z,4.6
2019-05-05T00:16:05.000Z,4.5
2019-05-05T00:19:37.000Z,4.2
2019-05-05T00:23:11.000Z,5.5
2019-05-05T00:26:45.000Z,4.8
2019-05-05T00:30:22.000Z,4.1
2019-05-05T00:33:56.000Z,4.8
2019-05-05T00:37:35.000Z,3.6
2019-05-05T00:41:14.000Z,4.8
2019-05-05T00:47:25.000Z,6.2
2019-05-05T00:51:07.000Z,4.9
2019-05-05T00:54:54.000Z,4.7
2019-05-05T00:58:37.000Z,4.7
2019-05-05T01:02:20.000Z,3.5
2019-05-05T01:06:05.000Z,3.6
2019-05-05T01:09:49.000Z,5.1
2019-05-05T01:13:23.000Z,4.3
2019-05-05T01:17:02.000Z,4.8
2019-05-05T01:20:41.000Z,3.7
2019-05-05T01:24:17.000Z,4.7
2019-05-05T01:28:00.000Z,3.8
2019-05-05T01:31:43.000Z,4.1
2019-05-05T01:35:23.000Z,4.7
2019-05-05T01:44:20.000Z,4.5
2019-05-05T01:47:43.000Z,4.1
2019-05-05T01:51:08.000Z,5
2019-05-05T01:54:31.000Z,4.5
2019-05-05T01:57:56.000Z,4.4
2019-05-05T02:01:22.000Z,4.5
2019-05-05T02:04:45.000Z,6.4
2019-05-05T02:08:13.000Z,6.4
2019-05-05T02:11:38.000Z,6.1
2019-05-05T02:15:01.000Z,6.5
2019-05-05T02:18:24.000Z,4.6
2019-05-05T02:21:49.000Z,5.2
2019-05-05T02:25:13.000Z,5.3
2019-05-05T02:28:37.000Z,5.8
2019-05-05T02:32:02.000Z,5
2019-05-05T02:35:29.000Z,4.8
2019-05-05T02:38:54.000Z,5.8
2019-05-05T02:42:20.000Z,6.9
2019-05-05T02:45:44.000Z,5.7
2019-05-05T02:49:09.000Z,5.1
2019-05-05T02:52:50.000Z,5.5
2019-05-05T02:56:14.000Z,5.5
2019-05-05T02:59:40.000Z,5
2019-05-05T03:03:07.000Z,6.2
2019-05-05T03:06:33.000Z,6
2019-05-05T03:10:00.000Z,5.4
2019-05-05T03:13:28.000Z,5.7
2019-05-05T03:16:52.000Z,4.8
2019-05-05T03:20:19.000Z,6.8
2019-05-05T03:23:52.000Z,5.6
2019-05-05T03:27:17.000Z,5.7
2019-05-05T03:30:41.000Z,6.3
2019-05-05T03:34:09.000Z,5.5
2019-05-05T03:37:33.000Z,6.2
2019-05-05T03:40:58.000Z,6.6
2019-05-05T03:44:26.000Z,6.6
2019-05-05T03:47:49.000Z,6
2019-05-05T03:51:19.000Z,7
2019-05-05T03:54:47.000Z,5.9
2019-05-05T03:58:21.000Z,5.7
2019-05-05T04:01:50.000Z,6.8
2019-05-05T04:05:19.000Z,4
2019-05-05T04:08:52.000Z,6.5
2019-05-05T04:12:20.000Z,18.2
2019-05-05T04:15:47.000Z,9.1
2019-05-05T04:19:19.000Z,7.8
2019-05-05T04:22:49.000Z,8.2
2019-05-05T04:26:20.000Z,9.3
2019-05-05T04:29:47.000Z,7.9
2019-05-05T04:33:26.000Z,6.7
2019-05-05T04:36:59.000Z,5.6
2019-05-05T04:40:26.000Z,6.1
2019-05-05T04:43:56.000Z,7.2
2019-05-05T04:47:22.000Z,7.2
2019-05-05T04:50:56.000Z,6.3
2019-05-05T04:54:34.000Z,8.1
2019-05-05T04:58:13.000Z,6.7
2019-05-05T05:01:45.000Z,6.1
2019-05-05T05:05:22.000Z,7.8
2019-05-05T05:09:03.000Z,6.8
2019-05-05T05:20:40.000Z,10.3
2019-05-05T05:24:04.000Z,8.3
2019-05-05T05:27:28.000Z,10.7
2019-05-05T05:30:52.000Z,7.5
2019-05-05T05:34:16.000Z,6.8
2019-05-05T05:37:39.000Z,10.4
2019-05-05T05:41:02.000Z,7.4
2019-05-05T05:44:28.000Z,10.3
2019-05-05T05:47:52.000Z,9
2019-05-05T05:51:17.000Z,11.3
2019-05-05T05:54:42.000Z,7.8
2019-05-05T05:58:08.000Z,7.5
2019-05-05T06:01:32.000Z,7.9
2019-05-05T06:04:57.000Z,7.4
2019-05-05T06:08:20.000Z,11.3
2019-05-05T06:11:47.000Z,9.8
2019-05-05T06:15:10.000Z,13
2019-05-05T06:18:33.000Z,9
2019-05-05T06:22:01.000Z,7.2
2019-05-05T06:25:24.000Z,11.5
2019-05-05T06:28:52.000Z,14
2019-05-05T06:32:17.000Z,18.5
2019-05-05T06:35:48.000Z,11.1
2019-05-05T06:39:15.000Z,13.2
2019-05-05T06:42:41.000Z,10.3
2019-05-05T06:46:09.000Z,9.3
2019-05-05T06:49:35.000Z,11.5
2019-05-05T06:53:01.000Z,12.3
2019-05-05T06:56:30.000Z,11.3
2019-05-05T06:59:54.000Z,11.6
2019-05-05T07:03:24.000Z,9.4
2019-05-05T07:06:51.000Z,9.8
2019-05-05T07:10:19.000Z,9.4
2019-05-05T07:13:51.000Z,10.3
2019-05-05T07:17:18.000Z,9.3
2019-05-05T07:20:47.000Z,8.7
2019-05-05T07:24:20.000Z,7.7
2019-05-05T07:27:49.000Z,8.9
2019-05-05T07:31:15.000Z,8.4
2019-05-05T07:34:43.000Z,6.3
2019-05-05T07:38:10.000Z,8.7
2019-05-05T07:41:37.000Z,7.3
2019-05-05T07:45:09.000Z,5.9
2019-05-05T07:48:45.000Z,6.8
2019-05-05T07:52:29.000Z,5.5
2019-05-05T07:55:57.000Z,6.6
2019-05-05T07:59:28.000Z,4.3
2019-05-05T08:02:57.000Z,5.2
2019-05-05T08:06:29.000Z,4.7
2019-05-05T08:10:00.000Z,3.3
2019-05-05T08:13:31.000Z,5.4
2019-05-05T08:17:05.000Z,3.8
2019-05-05T08:20:42.000Z,4.6
2019-05-05T08:24:16.000Z,2.6
2019-05-05T08:27:51.000Z,2.3
2019-05-05T08:31:23.000Z,3.2
2019-05-05T08:34:51.000Z,4.7
2019-05-05T08:38:23.000Z,3.7
2019-05-05T08:41:52.000Z,2.6
2019-05-05T08:45:22.000Z,3
2019-05-05T08:49:02.000Z,5.8
2019-05-05T08:52:45.000Z,3.6
2019-05-05T08:56:26.000Z,4.6
2019-05-05T09:00:04.000Z,3
2019-05-05T09:03:32.000Z,4
2019-05-05T09:07:07.000Z,4.1
2019-05-05T09:10:50.000Z,2.8
2019-05-05T09:14:22.000Z,3.8
2019-05-05T09:18:05.000Z,3.3
2019-05-05T09:21:42.000Z,4
2019-05-05T09:25:20.000Z,2.7
2019-05-05T09:28:55.000Z,3.5
2019-05-05T09:32:48.000Z,4.4
2019-05-05T09:36:25.000Z,1.9
2019-05-05T09:40:08.000Z,2.7
2019-05-05T09:43:46.000Z,4.3
2019-05-05T09:47:33.000Z,1.5
2019-05-05T09:51:14.000Z,1.7
2019-05-05T09:54:54.000Z,4.7
2019-05-05T09:58:36.000Z,4.3
2019-05-05T10:02:19.000Z,4.1
2019-05-05T10:05:58.000Z,3.6
2019-05-05T10:14:49.000Z,4
2019-05-05T10:18:12.000Z,2.4
2019-05-05T10:21:37.000Z,5.4
2019-05-05T10:25:00.000Z,2.2
2019-05-05T10:28:23.000Z,5.2
2019-05-05T10:31:48.000Z,4.5
2019-05-05T10:35:12.000Z,2.6
2019-05-05T10:38:35.000Z,4.7
2019-05-05T10:42:01.000Z,3.1
2019-05-05T10:45:26.000Z,5.3
2019-05-05T10:48:49.000Z,3
2019-05-05T10:52:15.000Z,3.5
2019-05-05T10:55:38.000Z,2.1
2019-05-05T10:59:03.000Z,3
2019-05-05T11:02:27.000Z,1.8
2019-05-05T11:05:52.000Z,2.6
2019-05-05T11:09:17.000Z,3.9
2019-05-05T11:12:40.000Z,3.2
2019-05-05T11:16:03.000Z,3.5
2019-05-05T11:19:28.000Z,2.8
2019-05-05T11:22:51.000Z,2.6
2019-05-05T11:26:19.000Z,2
2019-05-05T11:29:44.000Z,2.2
2019-05-05T11:33:09.000Z,2.1
2019-05-05T11:36:35.000Z,4.2
2019-05-05T11:40:02.000Z,4
2019-05-05T11:43:25.000Z,3.6
2019-05-05T11:46:50.000Z,3.2
2019-05-05T11:50:15.000Z,4.7
2019-05-05T11:53:44.000Z,2.2
2019-05-05T11:57:09.000Z,3.5
2019-05-05T12:00:34.000Z,3.5
2019-05-05T12:04:05.000Z,2.3
2019-05-05T12:07:31.000Z,3.3
2019-05-05T12:10:59.000Z,2.2
2019-05-05T12:14:28.000Z,3.3
2019-05-05T12:17:51.000Z,2.4
2019-05-05T12:21:18.000Z,2.6
2019-05-05T12:24:50.000Z,3.4
2019-05-05T12:28:17.000Z,3.4
2019-05-05T12:31:51.000Z,2.1
2019-05-05T12:35:23.000Z,4
2019-05-05T12:38:49.000Z,4.7
2019-05-05T12:42:24.000Z,4.6
2019-05-05T12:45:55.000Z,4.4
2019-05-05T12:49:29.000Z,3.7
2019-05-05T12:53:02.000Z,4.1
2019-05-05T12:56:36.000Z,2.8
2019-05-05T13:00:09.000Z,4.3
2019-05-05T13:03:41.000Z,3.4
2019-05-05T13:07:11.000Z,3.4
2019-05-05T13:10:41.000Z,14.1
2019-05-05T13:14:13.000Z,4.3
2019-05-05T13:17:48.000Z,4.2
2019-05-05T13:21:21.000Z,3.7
2019-05-05T13:24:53.000Z,4.3
2019-05-05T13:28:32.000Z,3.2
2019-05-05T13:32:05.000Z,3.3
2019-05-05T13:35:47.000Z,2.4
2019-05-05T13:39:16.000Z,2.8
2019-05-05T13:42:58.000Z,3.4
2019-05-05T13:46:39.000Z,12.9
2019-05-05T13:50:11.000Z,12.2
2019-05-05T13:53:50.000Z,8.1
2019-05-05T13:57:31.000Z,5.2
2019-05-05T14:01:10.000Z,6
2019-05-05T14:04:53.000Z,4.8
2019-05-05T14:08:34.000Z,4.6
2019-05-05T14:12:14.000Z,4.8
2019-05-05T14:16:01.000Z,4.8
2019-05-05T14:19:51.000Z,4.5
2019-05-05T14:23:37.000Z,4.4
2019-05-05T14:27:23.000Z,5.1
2019-05-05T14:30:59.000Z,4.3
2019-05-05T14:34:38.000Z,5
2019-05-05T14:38:21.000Z,4.8
2019-05-05T14:41:57.000Z,3.8
2019-05-05T14:45:38.000Z,5.6
2019-05-05T14:49:17.000Z,4.4
2019-05-05T14:53:00.000Z,3.4
2019-05-05T14:56:34.000Z,3.7
2019-05-05T15:05:30.000Z,2.7
2019-05-05T15:08:53.000Z,4.2
2019-05-05T15:12:19.000Z,5
2019-05-05T15:15:43.000Z,11.8
2019-05-05T15:19:07.000Z,3.9
2019-05-05T15:22:30.000Z,5.5
2019-05-05T15:25:53.000Z,4.8
2019-05-05T15:29:17.000Z,5.3
2019-05-05T15:32:41.000Z,3.9
2019-05-05T15:36:04.000Z,3.4
2019-05-05T15:39:31.000Z,3
2019-05-05T15:42:58.000Z,3.4
2019-05-05T15:46:24.000Z,2.3
2019-05-05T15:49:49.000Z,4.1
2019-05-05T15:53:12.000Z,2.7
2019-05-05T15:56:35.000Z,4
2019-05-05T16:00:00.000Z,4.9
2019-05-05T16:03:23.000Z,5.3
2019-05-05T16:06:47.000Z,4.1
2019-05-05T16:10:11.000Z,3.8
2019-05-05T16:13:34.000Z,3.8
2019-05-05T16:17:03.000Z,3.4
2019-05-05T16:20:28.000Z,2.6
2019-05-05T16:23:53.000Z,4.2
2019-05-05T16:27:21.000Z,3.9
2019-05-05T16:30:49.000Z,3.8
2019-05-05T16:34:18.000Z,4.9
2019-05-05T16:37:41.000Z,6.9
2019-05-05T16:41:05.000Z,5.8
2019-05-05T16:44:32.000Z,4
2019-05-05T16:47:59.000Z,5.7
2019-05-05T16:59:18.000Z,8.2
2019-05-05T17:02:41.000Z,6.2
2019-05-05T17:06:07.000Z,4
2019-05-05T17:09:30.000Z,4.8
2019-05-05T17:12:54.000Z,5.6
2019-05-05T17:16:20.000Z,6.2
2019-05-05T17:19:45.000Z,7.8
2019-05-05T17:23:11.000Z,5.5
2019-05-05T17:26:34.000Z,4.6
2019-05-05T17:37:45.000Z,6.3
2019-05-05T17:41:09.000Z,5.8
2019-05-05T17:44:33.000Z,13.8
2019-05-05T17:47:58.000Z,6
2019-05-05T17:51:21.000Z,7.7
2019-05-05T17:54:47.000Z,9.1
2019-05-05T17:58:11.000Z,9.6
2019-05-05T18:01:37.000Z,9.4
2019-05-05T18:05:03.000Z,7.8
2019-05-05T18:08:27.000Z,6.8
2019-05-05T18:11:51.000Z,10
2019-05-05T18:15:18.000Z,11.7
2019-05-05T18:18:43.000Z,12.8
2019-05-05T18:22:07.000Z,17.1
2019-05-05T18:25:38.000Z,15.2
2019-05-05T18:29:04.000Z,15.8
2019-05-05T18:32:32.000Z,8.6
2019-05-05T18:35:57.000Z,22.2
2019-05-05T18:39:20.000Z,18.2
2019-05-05T18:42:49.000Z,11.1
2019-05-05T18:46:14.000Z,19.9
2019-05-05T18:49:43.000Z,20.6
2019-05-05T18:53:09.000Z,15.8
2019-05-05T18:56:39.000Z,8.4
2019-05-05T19:00:03.000Z,7.4
2019-05-05T19:03:29.000Z,9.4
2019-05-05T19:06:52.000Z,21.4
2019-05-05T19:10:20.000Z,16.9
2019-05-05T19:13:50.000Z,16.2
2019-05-05T19:17:14.000Z,10.1
2019-05-05T19:20:42.000Z,10.5
2019-05-05T19:24:10.000Z,22.1
2019-05-05T19:27:39.000Z,14.4
2019-05-05T19:31:08.000Z,20.3
2019-05-05T19:34:34.000Z,13.1
2019-05-05T19:38:04.000Z,10.6
2019-05-05T19:41:36.000Z,5.8
2019-05-05T19:45:09.000Z,13.8
2019-05-05T19:48:44.000Z,8.6
2019-05-05T19:52:22.000Z,7.7
2019-05-05T19:55:51.000Z,9.5
2019-05-05T19:59:24.000Z,8.1
2019-05-05T20:03:03.000Z,9
2019-05-05T20:06:48.000Z,10.8
2019-05-05T20:10:19.000Z,11.1
2019-05-05T20:13:52.000Z,9.2
2019-05-05T20:17:37.000Z,9.7
2019-05-05T20:21:13.000Z,9.2
2019-05-05T20:24:47.000Z,11.6
2019-05-05T20:28:15.000Z,8.5
2019-05-05T20:31:51.000Z,7.8
2019-05-05T20:35:22.000Z,7.2
2019-05-05T20:39:01.000Z,7.6
2019-05-05T20:42:38.000Z,6.7
2019-05-05T20:46:08.000Z,7.6
2019-05-05T20:49:35.000Z,8.5
2019-05-05T20:53:08.000Z,9.5
2019-05-05T20:56:45.000Z,8.6
2019-05-05T21:00:24.000Z,10.7
2019-05-05T21:04:00.000Z,9
2019-05-05T21:07:40.000Z,9.3
2019-05-05T21:11:14.000Z,9.9
2019-05-05T21:14:56.000Z,11
2019-05-05T21:18:25.000Z,9.5
2019-05-05T21:22:03.000Z,10.8
2019-05-05T21:25:42.000Z,10.4
2019-05-05T21:29:18.000Z,13.3
2019-05-05T21:33:16.000Z,10.3
2019-05-05T21:36:50.000Z,9.3
2019-05-05T21:40:32.000Z,10.6
2019-05-05T21:44:20.000Z,13.2
2019-05-05T21:48:05.000Z,15.7
2019-05-05T21:51:49.000Z,11.9
2019-05-05T21:55:31.000Z,14.1
2019-05-05T21:59:06.000Z,16.4
2019-05-05T22:02:42.000Z,13.7
2019-05-05T22:06:20.000Z,11.6
2019-05-05T22:10:02.000Z,11.1
2019-05-05T22:13:44.000Z,9.8
2019-05-05T22:17:33.000Z,8.2
2019-05-05T22:21:21.000Z,8.7
2019-05-05T22:25:00.000Z,10.7
2019-05-05T22:33:53.000Z,13.2
2019-05-05T22:37:17.000Z,13.2
2019-05-05T22:40:40.000Z,12.7
2019-05-05T22:44:03.000Z,11.4
2019-05-05T22:47:27.000Z,11.8
2019-05-05T22:50:51.000Z,11.8
2019-05-05T22:54:14.000Z,13.6
2019-05-05T22:57:40.000Z,11.6
2019-05-05T23:01:03.000Z,11.9
2019-05-05T23:04:28.000Z,9.2
2019-05-05T23:07:51.000Z,8.8
2019-05-05T23:11:15.000Z,8.3
2019-05-05T23:14:40.000Z,9.5
2019-05-05T23:18:03.000Z,8.3
2019-05-05T23:21:28.000Z,11.9
2019-05-05T23:24:52.000Z,9.8
2019-05-05T23:28:19.000Z,10.6
2019-05-05T23:31:43.000Z,11.7
2019-05-05T23:35:10.000Z,9.5
2019-05-05T23:38:36.000Z,10.7
2019-05-05T23:42:02.000Z,13.3
2019-05-05T23:45:26.000Z,11.8
2019-05-05T23:48:50.000Z,11.3
2019-05-05T23:52:17.000Z,10.1
2019-05-05T23:55:40.000Z,8.7
2019-05-05T23:59:09.000Z,7.6
